Tai Shan, China
Current Conditions -  °F | °C
As of 1:00 AM on Friday 31 Oct 2014 (Local Time) from ZSJN Reporting Station
Haze Haze  
Wind Chill: 57°   Ceiling: Unl
Heat Index: 57°   Visibility: 1.8mi
Dew Point: 55°   Wind: 4mph
Humidity: 94%   Direction: 30°NNE
Pressure: 30.12"   Gusts: NA
Location:  36.25°N, 117.1°E
Report Text: ZSJN 301700Z 03002MPS 3000 BR NSC 14/13 Q1020 NOSIG
Loading
Personal Weather Stations






























Interactive Weather Map
Tropical Storm Tracking
New forecast layout! Learn more

10-Day Weather Forecast

Advertisements
Track Severe Weather on mobile